createdAt,value
2019-03-06T00:00:20.546Z,0.00
2019-03-06T00:01:20.423Z,0.00
2019-03-06T00:02:20.376Z,0.00
2019-03-06T00:03:20.334Z,0.00
2019-03-06T00:04:20.291Z,0.00
2019-03-06T00:05:20.229Z,0.00
2019-03-06T00:06:20.183Z,0.00
2019-03-06T00:07:20.138Z,0.00
2019-03-06T00:08:20.087Z,0.00
2019-03-06T00:09:20.042Z,0.00
2019-03-06T00:10:19.986Z,0.00
2019-03-06T00:11:19.948Z,0.00
2019-03-06T00:12:19.894Z,0.00
2019-03-06T00:13:19.889Z,0.00
2019-03-06T00:14:20.049Z,0.00
2019-03-06T00:15:19.791Z,0.00
2019-03-06T00:16:19.698Z,0.00
2019-03-06T00:17:19.660Z,0.00
2019-03-06T00:18:19.603Z,0.00
2019-03-06T00:19:19.562Z,0.00
2019-03-06T00:20:19.504Z,0.00
2019-03-06T00:21:19.456Z,0.00
2019-03-06T00:22:19.409Z,0.00
2019-03-06T00:23:19.409Z,0.00
2019-03-06T00:24:19.352Z,0.00
2019-03-06T00:25:19.269Z,0.00
2019-03-06T00:26:19.223Z,0.00
2019-03-06T00:27:19.178Z,0.00
2019-03-06T00:28:19.356Z,0.00
2019-03-06T00:29:19.252Z,0.00
2019-03-06T00:30:19.051Z,0.00
2019-03-06T00:31:18.975Z,0.00
2019-03-06T00:32:18.938Z,0.00
2019-03-06T00:33:18.875Z,0.00
2019-03-06T00:34:18.843Z,0.00
2019-03-06T00:35:18.780Z,0.00
2019-03-06T00:36:19.589Z,0.00
2019-03-06T00:37:18.685Z,0.00
2019-03-06T00:38:18.633Z,0.00
2019-03-06T00:39:18.587Z,0.00
2019-03-06T00:40:18.545Z,0.00
2019-03-06T00:41:18.594Z,0.00
2019-03-06T00:42:18.441Z,0.00
2019-03-06T00:43:18.393Z,0.00
2019-03-06T00:44:18.348Z,0.00
2019-03-06T00:45:18.296Z,0.00
2019-03-06T00:46:18.253Z,0.00
2019-03-06T00:47:18.199Z,0.00
2019-03-06T00:48:18.236Z,0.00
2019-03-06T00:49:18.110Z,0.00
2019-03-06T00:50:18.162Z,0.00
2019-03-06T00:51:18.012Z,0.00
2019-03-06T00:52:17.959Z,0.00
2019-03-06T00:53:17.912Z,0.00
2019-03-06T00:54:17.933Z,0.00
2019-03-06T00:55:17.814Z,0.00
2019-03-06T00:56:17.765Z,0.00
2019-03-06T00:57:17.720Z,0.00
2019-03-06T00:58:17.676Z,0.00
2019-03-06T00:59:17.620Z,0.00
2019-03-06T01:00:17.583Z,0.00
2019-03-06T01:01:17.536Z,0.00
2019-03-06T01:02:17.476Z,0.00
2019-03-06T01:03:17.431Z,0.00
2019-03-06T01:04:17.381Z,0.00
2019-03-06T01:05:17.334Z,0.00
2019-03-06T01:06:17.289Z,0.00
2019-03-06T01:07:17.243Z,0.00
2019-03-06T01:08:17.187Z,0.00
2019-03-06T01:09:17.140Z,0.00
2019-03-06T01:10:17.090Z,0.00
2019-03-06T01:11:17.043Z,0.00
2019-03-06T01:12:16.995Z,0.00
2019-03-06T01:13:16.947Z,0.00
2019-03-06T01:14:16.897Z,0.00
2019-03-06T01:15:16.855Z,0.00
2019-03-06T01:16:16.805Z,0.00
2019-03-06T01:17:16.753Z,0.00
2019-03-06T01:18:16.704Z,0.00
2019-03-06T01:19:16.658Z,0.00
2019-03-06T01:20:16.608Z,0.00
2019-03-06T01:21:16.560Z,0.00
2019-03-06T01:22:16.512Z,0.00
2019-03-06T01:23:16.467Z,0.00
2019-03-06T01:24:16.417Z,0.00
2019-03-06T01:25:16.368Z,0.00
2019-03-06T01:26:16.318Z,0.00
2019-03-06T01:27:16.267Z,0.00
2019-03-06T01:28:16.222Z,0.00
2019-03-06T01:29:16.177Z,0.00
2019-03-06T01:30:16.123Z,0.00
2019-03-06T01:31:16.077Z,0.00
2019-03-06T01:32:16.035Z,0.00
2019-03-06T01:33:15.981Z,0.00
2019-03-06T01:34:15.933Z,0.00
2019-03-06T01:35:15.886Z,0.00
2019-03-06T01:36:15.835Z,0.00
2019-03-06T01:37:15.788Z,0.00
2019-03-06T01:38:15.740Z,0.00
2019-03-06T01:39:15.689Z,0.00
2019-03-06T01:40:15.646Z,0.00
2019-03-06T01:41:15.596Z,0.00
2019-03-06T01:42:15.547Z,0.00
2019-03-06T01:43:15.498Z,0.00
2019-03-06T01:44:15.450Z,0.00
2019-03-06T01:45:15.407Z,0.00
2019-03-06T01:46:15.352Z,0.00
2019-03-06T01:47:15.305Z,0.00
2019-03-06T01:48:15.255Z,0.00
2019-03-06T01:49:15.211Z,0.00
2019-03-06T01:50:15.160Z,0.00
2019-03-06T01:51:15.113Z,0.00
2019-03-06T01:52:15.063Z,0.00
2019-03-06T01:53:15.014Z,0.00
2019-03-06T01:54:14.966Z,0.00
2019-03-06T01:55:14.922Z,0.00
2019-03-06T01:56:14.869Z,0.00
2019-03-06T01:57:14.821Z,0.00
2019-03-06T01:58:14.771Z,0.00
2019-03-06T01:59:14.729Z,0.00
2019-03-06T02:00:14.676Z,0.00
2019-03-06T02:01:14.626Z,0.00
2019-03-06T02:02:14.577Z,0.00
2019-03-06T02:03:14.531Z,0.00
2019-03-06T02:04:14.485Z,0.00
2019-03-06T02:05:14.438Z,0.00
2019-03-06T02:06:14.388Z,0.00
2019-03-06T02:07:14.343Z,0.00
2019-03-06T02:08:14.291Z,0.00
2019-03-06T02:09:14.242Z,0.00
2019-03-06T02:10:14.195Z,0.00
2019-03-06T02:11:14.158Z,0.00
2019-03-06T02:12:14.107Z,0.00
2019-03-06T02:13:14.047Z,0.00
2019-03-06T02:14:13.999Z,0.00
2019-03-06T02:15:13.954Z,0.00
2019-03-06T02:16:13.905Z,0.00
2019-03-06T02:17:13.852Z,0.00
2019-03-06T02:18:13.812Z,0.00
2019-03-06T02:19:13.758Z,0.00
2019-03-06T02:20:13.712Z,0.00
2019-03-06T02:21:13.660Z,0.00
2019-03-06T02:22:13.613Z,0.00
2019-03-06T02:23:13.564Z,0.00
2019-03-06T02:24:13.515Z,0.00
2019-03-06T02:25:13.468Z,0.00
2019-03-06T02:26:13.417Z,0.00
2019-03-06T02:27:13.369Z,0.00
2019-03-06T02:28:13.320Z,0.00
2019-03-06T02:29:13.276Z,0.00
2019-03-06T02:30:13.227Z,0.00
2019-03-06T02:31:13.175Z,0.00
2019-03-06T02:32:13.126Z,0.00
2019-03-06T02:33:13.079Z,0.00
2019-03-06T02:34:13.030Z,0.00
2019-03-06T02:35:12.987Z,0.00
2019-03-06T02:36:12.938Z,0.00
2019-03-06T02:37:12.889Z,0.00
2019-03-06T02:38:12.838Z,0.00
2019-03-06T02:39:12.791Z,0.00
2019-03-06T02:40:12.748Z,0.00
2019-03-06T02:41:12.693Z,0.00
2019-03-06T02:42:12.647Z,0.00
2019-03-06T02:43:12.600Z,0.00
2019-03-06T02:44:12.550Z,0.00
2019-03-06T02:45:12.500Z,0.00
2019-03-06T02:46:12.452Z,0.00
2019-03-06T02:47:12.406Z,0.00
2019-03-06T02:48:12.355Z,0.00
2019-03-06T02:49:12.309Z,0.00
2019-03-06T02:50:12.257Z,0.00
2019-03-06T02:51:12.244Z,0.00
2019-03-06T02:52:12.166Z,0.00
2019-03-06T02:53:12.127Z,0.00
2019-03-06T02:54:12.066Z,0.00
2019-03-06T02:55:12.017Z,0.00
2019-03-06T02:56:11.968Z,0.00
2019-03-06T02:57:11.937Z,0.00
2019-03-06T02:58:11.873Z,0.00
2019-03-06T02:59:11.829Z,0.00
2019-03-06T03:00:11.784Z,0.00
2019-03-06T03:01:11.728Z,0.00
2019-03-06T03:02:11.680Z,0.00
2019-03-06T03:03:11.636Z,0.00
2019-03-06T03:04:11.583Z,0.00
2019-03-06T03:05:11.538Z,0.00
2019-03-06T03:06:11.485Z,0.00
2019-03-06T03:07:11.440Z,0.00
2019-03-06T03:08:11.393Z,0.00
2019-03-06T03:09:11.341Z,0.00
2019-03-06T03:10:11.292Z,0.00
2019-03-06T03:11:11.258Z,0.00
2019-03-06T03:12:11.196Z,0.00
2019-03-06T03:13:11.156Z,0.00
2019-03-06T03:14:11.099Z,0.00
2019-03-06T03:15:11.051Z,0.00
2019-03-06T03:16:11.034Z,0.00
2019-03-06T03:17:10.959Z,0.00
2019-03-06T03:18:10.909Z,0.00
2019-03-06T03:19:10.861Z,0.00
2019-03-06T03:20:10.810Z,0.00
2019-03-06T03:21:10.765Z,0.00
2019-03-06T03:22:10.718Z,0.00
2019-03-06T03:23:10.718Z,0.00
2019-03-06T03:24:10.709Z,0.00
2019-03-06T03:25:10.664Z,0.00
2019-03-06T03:26:10.518Z,0.00
2019-03-06T03:27:10.479Z,0.00
2019-03-06T03:28:10.425Z,0.00
2019-03-06T03:29:10.379Z,0.00
2019-03-06T03:30:10.341Z,0.00
2019-03-06T03:31:10.281Z,0.00
2019-03-06T03:32:10.231Z,0.00
2019-03-06T03:33:10.188Z,0.00
2019-03-06T03:34:10.532Z,0.00
2019-03-06T03:35:10.170Z,0.00
2019-03-06T03:36:10.040Z,0.00
2019-03-06T03:37:09.995Z,0.00
2019-03-06T03:38:09.945Z,0.00
2019-03-06T03:39:09.894Z,0.00
2019-03-06T03:40:09.847Z,0.00
2019-03-06T03:41:09.799Z,0.00
2019-03-06T03:42:09.753Z,0.00
2019-03-06T03:43:09.701Z,0.00
2019-03-06T03:44:09.672Z,0.00
2019-03-06T03:45:09.605Z,0.00
2019-03-06T03:46:09.562Z,0.00
2019-03-06T03:47:09.507Z,0.00
2019-03-06T03:48:09.685Z,0.00
2019-03-06T03:49:09.415Z,0.00
2019-03-06T03:50:09.369Z,0.00
2019-03-06T03:51:09.317Z,0.00
2019-03-06T03:52:09.267Z,0.00
2019-03-06T03:53:09.246Z,0.00
2019-03-06T03:54:09.171Z,0.00
2019-03-06T03:55:09.122Z,0.00
2019-03-06T03:56:09.074Z,0.00
2019-03-06T03:57:09.030Z,0.00
2019-03-06T03:58:08.985Z,0.00
2019-03-06T03:59:08.942Z,0.00
2019-03-06T04:00:08.887Z,0.00
2019-03-06T04:01:08.836Z,0.00
2019-03-06T04:02:08.803Z,0.00
2019-03-06T04:03:08.740Z,0.00
2019-03-06T04:04:08.714Z,0.00
2019-03-06T04:05:08.641Z,0.00
2019-03-06T04:06:08.592Z,0.00
2019-03-06T04:07:08.543Z,0.00
2019-03-06T04:08:08.498Z,0.00
2019-03-06T04:09:08.457Z,0.00
2019-03-06T04:10:08.404Z,0.00
2019-03-06T04:11:08.353Z,0.00
2019-03-06T04:12:08.306Z,0.00
2019-03-06T04:13:08.258Z,0.00
2019-03-06T04:14:08.215Z,0.00
2019-03-06T04:15:08.166Z,0.00
2019-03-06T04:16:08.110Z,0.00
2019-03-06T04:17:08.077Z,0.00
2019-03-06T04:18:08.015Z,0.00
2019-03-06T04:19:07.971Z,0.00
2019-03-06T04:20:07.919Z,0.00
2019-03-06T04:21:07.870Z,0.00
2019-03-06T04:22:07.820Z,0.00
2019-03-06T04:23:07.775Z,0.00
2019-03-06T04:24:07.730Z,0.00
2019-03-06T04:25:07.677Z,0.00
2019-03-06T04:26:07.627Z,0.00
2019-03-06T04:27:07.581Z,0.00
2019-03-06T04:28:07.537Z,0.00
2019-03-06T04:29:07.492Z,0.00
2019-03-06T04:30:07.442Z,0.00
2019-03-06T04:31:07.394Z,0.00
2019-03-06T04:32:07.341Z,0.00
2019-03-06T04:33:07.292Z,0.00
2019-03-06T04:34:07.252Z,0.00
2019-03-06T04:35:07.200Z,0.00
2019-03-06T04:36:07.149Z,0.00
2019-03-06T04:37:07.103Z,0.00
2019-03-06T04:38:07.057Z,0.00
2019-03-06T04:39:07.004Z,0.00
2019-03-06T04:40:06.958Z,0.00
2019-03-06T04:41:06.917Z,0.00
2019-03-06T04:42:06.863Z,0.00
2019-03-06T04:43:06.812Z,0.00
2019-03-06T04:44:06.769Z,0.00
2019-03-06T04:45:06.716Z,0.00
2019-03-06T04:46:06.670Z,0.00
2019-03-06T04:47:06.628Z,0.00
2019-03-06T04:48:06.591Z,0.00
2019-03-06T04:49:06.525Z,0.00
2019-03-06T04:50:06.479Z,0.00
2019-03-06T04:51:06.429Z,0.00
2019-03-06T04:52:06.387Z,0.00
2019-03-06T04:53:06.334Z,0.00
2019-03-06T04:54:06.287Z,0.00
2019-03-06T04:55:06.238Z,0.00
2019-03-06T04:56:06.189Z,0.00
2019-03-06T04:57:06.142Z,0.00
2019-03-06T04:58:06.098Z,0.00
2019-03-06T04:59:06.049Z,0.00
2019-03-06T05:00:06.001Z,0.00
2019-03-06T05:01:05.951Z,0.00
2019-03-06T05:02:05.909Z,0.00
2019-03-06T05:03:05.856Z,0.00
2019-03-06T05:04:05.812Z,0.00
2019-03-06T05:05:05.761Z,0.00
2019-03-06T05:06:05.717Z,0.00
2019-03-06T05:07:05.663Z,0.00
2019-03-06T05:08:05.817Z,0.00
2019-03-06T05:09:05.568Z,0.00
2019-03-06T05:10:05.519Z,0.00
2019-03-06T05:11:05.476Z,0.00
2019-03-06T05:12:05.438Z,0.00
2019-03-06T05:13:05.380Z,0.00
2019-03-06T05:14:05.335Z,0.00
2019-03-06T05:15:05.299Z,0.00
2019-03-06T05:16:05.238Z,0.00
2019-03-06T05:17:05.186Z,0.00
2019-03-06T05:18:05.136Z,0.00
2019-03-06T05:19:05.092Z,0.00
2019-03-06T05:20:05.041Z,0.00
2019-03-06T05:21:04.994Z,0.00
2019-03-06T05:22:04.947Z,0.00
2019-03-06T05:23:04.895Z,0.00
2019-03-06T05:24:04.850Z,0.00
2019-03-06T05:25:04.806Z,0.00
2019-03-06T05:26:04.753Z,0.00
2019-03-06T05:27:04.707Z,0.00
2019-03-06T05:28:04.660Z,0.00
2019-03-06T05:29:04.613Z,0.00
2019-03-06T05:30:04.561Z,0.00
2019-03-06T05:31:04.516Z,0.00
2019-03-06T05:32:04.485Z,0.00
2019-03-06T05:33:04.422Z,0.00
2019-03-06T05:34:04.371Z,0.00
2019-03-06T05:35:04.325Z,0.00
2019-03-06T05:36:04.277Z,0.00
2019-03-06T05:37:04.226Z,0.00
2019-03-06T05:38:04.182Z,0.00
2019-03-06T05:39:04.130Z,0.00
2019-03-06T05:40:04.085Z,0.00
2019-03-06T05:41:04.038Z,0.00
2019-03-06T05:42:03.988Z,0.00
2019-03-06T05:43:03.937Z,0.00
2019-03-06T05:44:03.892Z,0.00
2019-03-06T05:45:03.846Z,0.00
2019-03-06T05:46:03.799Z,0.00
2019-03-06T05:47:03.746Z,0.00
2019-03-06T05:48:03.708Z,0.00
2019-03-06T05:49:03.658Z,0.00
2019-03-06T05:50:03.603Z,0.00
2019-03-06T05:51:03.575Z,0.00
2019-03-06T05:52:03.515Z,0.00
2019-03-06T05:53:03.465Z,0.00
2019-03-06T05:54:03.414Z,0.00
2019-03-06T05:55:03.363Z,0.00
2019-03-06T05:56:03.323Z,0.00
2019-03-06T05:57:03.271Z,0.00
2019-03-06T05:58:03.227Z,0.00
2019-03-06T05:59:03.175Z,0.00
2019-03-06T06:00:03.130Z,0.00
2019-03-06T06:01:03.080Z,0.00
2019-03-06T06:02:03.033Z,0.00
2019-03-06T06:03:02.982Z,0.00
2019-03-06T06:04:02.936Z,0.00
2019-03-06T06:05:02.887Z,0.00
2019-03-06T06:06:02.838Z,0.00
2019-03-06T06:07:02.790Z,0.00
2019-03-06T06:08:02.760Z,0.00
2019-03-06T06:09:02.697Z,0.00
2019-03-06T06:10:02.651Z,0.00
2019-03-06T06:11:02.604Z,0.00
2019-03-06T06:12:02.551Z,0.00
2019-03-06T06:13:02.506Z,0.00
2019-03-06T06:14:02.455Z,0.00
2019-03-06T06:15:02.410Z,0.00
2019-03-06T06:16:02.359Z,0.00
2019-03-06T06:17:02.313Z,0.00
2019-03-06T06:18:02.270Z,0.00
2019-03-06T06:19:02.219Z,0.00
2019-03-06T06:20:02.170Z,0.00
2019-03-06T06:21:02.125Z,0.00
2019-03-06T06:22:02.071Z,0.00
2019-03-06T06:23:02.026Z,0.00
2019-03-06T06:24:01.978Z,0.00
2019-03-06T06:25:01.931Z,0.00
2019-03-06T06:26:01.901Z,0.00
2019-03-06T06:27:01.840Z,0.00
2019-03-06T06:28:01.788Z,0.00
2019-03-06T06:29:01.740Z,0.00
2019-03-06T06:30:01.691Z,0.00
2019-03-06T06:31:01.645Z,0.00
2019-03-06T06:32:01.597Z,0.00
2019-03-06T06:33:01.548Z,0.00
2019-03-06T06:34:01.503Z,0.00
2019-03-06T06:35:01.453Z,0.00
2019-03-06T06:36:01.408Z,0.00
2019-03-06T06:37:01.354Z,0.00
2019-03-06T06:38:01.307Z,0.00
2019-03-06T06:39:01.263Z,0.00
2019-03-06T06:40:01.212Z,5.63
2019-03-06T06:41:01.165Z,5.63
2019-03-06T06:42:01.114Z,5.63
2019-03-06T06:43:01.067Z,5.63
2019-03-06T06:44:01.025Z,5.63
2019-03-06T06:45:01.024Z,5.63
2019-03-06T06:46:00.931Z,5.63
2019-03-06T06:47:00.879Z,5.63
2019-03-06T06:48:00.833Z,5.63
2019-03-06T06:49:00.785Z,5.63
2019-03-06T06:50:00.741Z,5.63
2019-03-06T06:51:02.263Z,5.63
2019-03-06T06:52:00.637Z,5.63
2019-03-06T06:53:00.594Z,5.63
2019-03-06T06:54:00.546Z,5.63
2019-03-06T06:55:00.499Z,5.63
2019-03-06T06:56:00.451Z,5.63
2019-03-06T06:57:00.400Z,5.63
2019-03-06T06:58:00.354Z,5.63
2019-03-06T06:59:00.310Z,5.63
2019-03-06T07:00:00.371Z,5.63
2019-03-06T07:01:00.211Z,5.63
2019-03-06T07:02:00.160Z,5.63
2019-03-06T07:03:00.115Z,5.63
2019-03-06T07:04:00.067Z,5.63
2019-03-06T07:05:00.019Z,5.63
2019-03-06T07:05:59.978Z,11.25
2019-03-06T07:06:59.940Z,11.25
2019-03-06T07:07:59.877Z,11.25
2019-03-06T07:08:59.828Z,11.25
2019-03-06T07:09:59.778Z,11.25
2019-03-06T07:10:59.743Z,11.25
2019-03-06T07:11:59.686Z,11.25
2019-03-06T07:12:59.639Z,11.25
2019-03-06T07:13:59.593Z,11.25
2019-03-06T07:14:59.547Z,11.25
2019-03-06T07:15:59.497Z,11.25
2019-03-06T07:16:59.454Z,11.25
2019-03-06T07:17:59.400Z,11.25
2019-03-06T07:18:59.350Z,11.25
2019-03-06T07:19:59.302Z,16.88
2019-03-06T07:20:59.258Z,16.88
2019-03-06T07:21:59.208Z,16.88
2019-03-06T07:22:59.160Z,16.88
2019-03-06T07:23:59.115Z,16.88
2019-03-06T07:24:59.064Z,16.88
2019-03-06T07:25:59.025Z,16.88
2019-03-06T07:26:58.973Z,16.88
2019-03-06T07:27:58.929Z,16.88
2019-03-06T07:28:58.877Z,16.88
2019-03-06T07:29:58.831Z,16.88
2019-03-06T07:30:58.780Z,16.88
2019-03-06T07:31:58.730Z,16.88
2019-03-06T07:32:58.684Z,16.88
2019-03-06T07:33:58.642Z,16.88
2019-03-06T07:34:58.597Z,16.88
2019-03-06T07:35:58.543Z,16.88
2019-03-06T07:36:58.499Z,16.88
2019-03-06T07:37:58.449Z,16.88
2019-03-06T07:38:58.399Z,22.50
2019-03-06T07:39:58.354Z,22.50
2019-03-06T07:40:58.303Z,22.50
2019-03-06T07:41:58.260Z,16.88
2019-03-06T07:42:58.208Z,16.88
2019-03-06T07:43:58.161Z,16.88
2019-03-06T07:44:58.112Z,22.50
2019-03-06T07:45:58.064Z,22.50
2019-03-06T07:46:58.020Z,22.50
2019-03-06T07:47:57.971Z,22.50
2019-03-06T07:48:58.158Z,22.50
2019-03-06T07:49:57.873Z,28.13
2019-03-06T07:50:57.826Z,28.13
2019-03-06T07:51:57.786Z,28.13
2019-03-06T07:52:57.736Z,33.75
2019-03-06T07:53:57.686Z,33.75
2019-03-06T07:54:57.634Z,33.75
2019-03-06T07:55:57.593Z,33.75
2019-03-06T07:56:59.266Z,33.75
2019-03-06T07:57:57.493Z,33.75
2019-03-06T07:58:57.446Z,33.75
2019-03-06T07:59:57.411Z,33.75
2019-03-06T08:00:57.364Z,39.38
2019-03-06T08:01:57.303Z,39.38
2019-03-06T08:02:57.267Z,39.38
2019-03-06T08:03:57.226Z,39.38
2019-03-06T08:04:57.162Z,39.38
2019-03-06T08:05:57.114Z,39.38
2019-03-06T08:06:57.068Z,45.00
2019-03-06T08:07:57.025Z,45.00
2019-03-06T08:08:56.975Z,45.00
2019-03-06T08:09:56.924Z,45.00
2019-03-06T08:10:56.884Z,45.00
2019-03-06T08:11:56.833Z,50.63
2019-03-06T08:12:56.796Z,50.63
2019-03-06T08:13:56.739Z,50.63
2019-03-06T08:14:56.701Z,50.63
2019-03-06T08:15:56.643Z,50.63
2019-03-06T08:16:56.993Z,50.63
2019-03-06T08:17:56.550Z,50.63
2019-03-06T08:18:56.503Z,50.63
2019-03-06T08:19:56.451Z,50.63
2019-03-06T08:20:56.403Z,50.63
2019-03-06T08:21:56.360Z,50.63
2019-03-06T08:22:56.315Z,50.63
2019-03-06T08:23:56.270Z,50.63
2019-03-06T08:24:56.214Z,56.25
2019-03-06T08:25:56.169Z,56.25
2019-03-06T08:26:56.135Z,56.25
2019-03-06T08:27:56.073Z,56.25
2019-03-06T08:28:56.026Z,61.88
2019-03-06T08:29:55.982Z,61.88
2019-03-06T08:30:55.934Z,61.88
2019-03-06T08:31:55.893Z,67.50
2019-03-06T08:32:55.840Z,67.50
2019-03-06T08:33:55.792Z,67.50
2019-03-06T08:34:55.747Z,67.50
2019-03-06T08:35:55.706Z,61.88
2019-03-06T08:36:55.655Z,61.88
2019-03-06T08:37:55.605Z,61.88
2019-03-06T08:38:55.562Z,56.25
2019-03-06T08:39:55.511Z,61.88
2019-03-06T08:41:03.947Z,56.25
2019-03-06T08:41:55.433Z,56.25
2019-03-06T08:42:55.373Z,56.25
2019-03-06T08:43:55.324Z,50.63
2019-03-06T08:44:55.275Z,45.00
2019-03-06T08:45:55.229Z,50.63
2019-03-06T08:46:55.182Z,50.63
2019-03-06T08:47:55.143Z,50.63
2019-03-06T08:48:55.089Z,50.63
2019-03-06T08:49:55.283Z,50.63
2019-03-06T08:50:54.995Z,50.63
2019-03-06T08:51:54.948Z,50.63
2019-03-06T08:52:54.902Z,56.25
2019-03-06T08:53:54.853Z,56.25
2019-03-06T08:54:54.807Z,56.25
2019-03-06T08:55:54.762Z,56.25
2019-03-06T08:56:54.714Z,61.88
2019-03-06T08:57:54.681Z,61.88
2019-03-06T08:58:54.627Z,61.88
2019-03-06T08:59:54.577Z,61.88
2019-03-06T09:00:54.530Z,61.88
2019-03-06T09:02:00.445Z,61.88
2019-03-06T09:02:54.433Z,67.50
2019-03-06T09:03:54.390Z,67.50
2019-03-06T09:04:54.340Z,73.13
2019-03-06T09:05:54.293Z,73.13
2019-03-06T09:06:54.250Z,78.75
2019-03-06T09:07:54.203Z,73.13
2019-03-06T09:08:54.153Z,73.13
2019-03-06T09:09:54.108Z,67.50
2019-03-06T09:11:02.461Z,67.50
2019-03-06T09:11:54.015Z,67.50
2019-03-06T09:12:53.971Z,67.50
2019-03-06T09:13:53.921Z,61.88
2019-03-06T09:14:53.873Z,61.88
2019-03-06T09:15:53.847Z,61.88
2019-03-06T09:16:53.791Z,56.25
2019-03-06T09:17:57.138Z,56.25
2019-03-06T09:18:53.689Z,56.25
2019-03-06T09:19:53.645Z,50.63
2019-03-06T09:20:53.599Z,50.63
2019-03-06T09:21:53.551Z,56.25
2019-03-06T09:22:53.514Z,56.25
2019-03-06T09:23:53.462Z,56.25
2019-03-06T09:24:53.418Z,56.25
2019-03-06T09:25:53.364Z,56.25
2019-03-06T09:26:53.317Z,56.25
2019-03-06T09:27:53.277Z,50.63
2019-03-06T09:29:00.731Z,50.63
2019-03-06T09:29:53.181Z,56.25
2019-03-06T09:30:53.150Z,56.25
2019-03-06T09:31:53.093Z,56.25
2019-03-06T09:32:53.039Z,56.25
2019-03-06T09:33:53.001Z,56.25
2019-03-06T09:34:52.949Z,56.25
2019-03-06T09:35:52.906Z,56.25
2019-03-06T09:36:52.863Z,56.25
2019-03-06T09:37:52.814Z,56.25
2019-03-06T09:38:52.767Z,56.25
2019-03-06T09:39:52.714Z,56.25
2019-03-06T09:40:52.667Z,61.88
2019-03-06T09:41:52.633Z,61.88
2019-03-06T09:42:52.577Z,61.88
2019-03-06T09:43:52.529Z,61.88
2019-03-06T09:44:52.488Z,61.88
2019-03-06T09:45:52.438Z,67.50
2019-03-06T09:46:52.391Z,67.50
2019-03-06T09:47:52.345Z,67.50
2019-03-06T09:48:52.301Z,67.50
2019-03-06T09:49:52.254Z,73.13
2019-03-06T09:50:52.221Z,73.13
2019-03-06T09:51:52.162Z,73.13
2019-03-06T09:52:52.113Z,78.75
2019-03-06T09:53:52.070Z,84.38
2019-03-06T09:54:52.022Z,90.00
2019-03-06T09:55:51.975Z,90.00
2019-03-06T09:56:51.929Z,95.63
2019-03-06T09:57:51.884Z,95.63
2019-03-06T09:58:51.837Z,101.25
2019-03-06T09:59:51.793Z,95.63
2019-03-06T10:00:51.750Z,95.63
2019-03-06T10:01:51.701Z,95.63
2019-03-06T10:02:51.653Z,90.00
2019-03-06T10:03:51.609Z,90.00
2019-03-06T10:04:51.561Z,90.00
2019-03-06T10:05:51.513Z,90.00
2019-03-06T10:06:51.470Z,90.00
2019-03-06T10:07:51.427Z,90.00
2019-03-06T10:08:51.378Z,90.00
2019-03-06T10:09:58.918Z,90.00
2019-03-06T10:10:57.477Z,90.00
2019-03-06T10:11:51.238Z,90.00
2019-03-06T10:12:51.193Z,95.63
2019-03-06T10:13:52.157Z,95.63
2019-03-06T10:14:51.101Z,95.63
2019-03-06T10:15:51.057Z,95.63
2019-03-06T10:16:51.013Z,95.63
2019-03-06T10:17:50.967Z,95.63
2019-03-06T10:18:50.920Z,95.63
2019-03-06T10:19:50.883Z,90.00
2019-03-06T10:20:50.829Z,90.00
2019-03-06T10:21:50.789Z,84.38
2019-03-06T10:22:50.738Z,78.75
2019-03-06T10:23:50.695Z,73.13
2019-03-06T10:24:50.677Z,67.50
2019-03-06T10:25:50.654Z,67.50
2019-03-06T10:26:50.632Z,67.50
2019-03-06T10:27:50.606Z,67.50
2019-03-06T10:28:50.531Z,73.13
2019-03-06T10:29:50.415Z,73.13
2019-03-06T10:30:50.379Z,73.13
2019-03-06T10:31:50.332Z,73.13
2019-03-06T10:32:50.285Z,73.13
2019-03-06T10:33:50.233Z,73.13
2019-03-06T10:34:50.191Z,73.13
2019-03-06T10:35:50.148Z,73.13
2019-03-06T10:36:50.096Z,73.13
2019-03-06T10:37:50.053Z,73.13
2019-03-06T10:38:50.006Z,73.13
2019-03-06T10:39:49.959Z,73.13
2019-03-06T10:40:49.917Z,73.13
2019-03-06T10:41:49.870Z,73.13
2019-03-06T10:42:49.830Z,73.13
2019-03-06T10:43:49.993Z,73.13
2019-03-06T10:44:49.736Z,78.75
2019-03-06T10:45:49.688Z,78.75
2019-03-06T10:46:49.658Z,78.75
2019-03-06T10:47:49.599Z,90.00
2019-03-06T10:48:49.553Z,84.38
2019-03-06T10:49:49.507Z,84.38
2019-03-06T10:50:49.462Z,84.38
2019-03-06T10:51:49.416Z,90.00
2019-03-06T10:52:49.379Z,90.00
2019-03-06T10:53:49.325Z,90.00
2019-03-06T10:54:49.282Z,90.00
2019-03-06T10:55:49.235Z,90.00
2019-03-06T10:56:49.190Z,95.63
2019-03-06T10:57:49.154Z,95.63
2019-03-06T10:58:49.104Z,101.25
2019-03-06T10:59:49.053Z,101.25
2019-03-06T11:00:49.030Z,101.25
2019-03-06T11:01:48.962Z,106.88
2019-03-06T11:02:48.915Z,101.25
2019-03-06T11:03:48.870Z,101.25
2019-03-06T11:04:48.825Z,101.25
2019-03-06T11:05:48.788Z,101.25
2019-03-06T11:06:48.737Z,106.88
2019-03-06T11:07:48.697Z,106.88
2019-03-06T11:08:48.648Z,106.88
2019-03-06T11:09:48.603Z,112.50
2019-03-06T11:10:48.557Z,112.50
2019-03-06T11:11:48.510Z,118.13
2019-03-06T11:12:48.466Z,118.13
2019-03-06T11:13:48.419Z,118.13
2019-03-06T11:14:48.380Z,112.50
2019-03-06T11:15:55.352Z,118.13
2019-03-06T11:16:48.285Z,118.13
2019-03-06T11:17:48.243Z,112.50
2019-03-06T11:18:48.201Z,106.88
2019-03-06T11:19:48.155Z,101.25
2019-03-06T11:20:48.107Z,95.63
2019-03-06T11:21:48.060Z,84.38
2019-03-06T11:22:48.017Z,84.38
2019-03-06T11:23:47.973Z,90.00
2019-03-06T11:24:47.931Z,95.63
2019-03-06T11:25:47.889Z,95.63
2019-03-06T11:26:47.839Z,95.63
2019-03-06T11:27:47.796Z,95.63
2019-03-06T11:28:47.753Z,101.25
2019-03-06T11:29:47.710Z,101.25
2019-03-06T11:30:47.661Z,101.25
2019-03-06T11:31:47.631Z,101.25
2019-03-06T11:32:54.277Z,101.25
2019-03-06T11:33:47.537Z,101.25
2019-03-06T11:34:47.484Z,101.25
2019-03-06T11:35:47.442Z,106.88
2019-03-06T11:36:47.394Z,106.88
2019-03-06T11:37:47.348Z,112.50
2019-03-06T11:38:47.309Z,123.75
2019-03-06T11:39:47.264Z,123.75
2019-03-06T11:40:47.218Z,123.75
2019-03-06T11:41:47.176Z,123.75
2019-03-06T11:42:47.130Z,129.38
2019-03-06T11:43:47.084Z,135.00
2019-03-06T11:44:47.041Z,135.00
2019-03-06T11:45:46.992Z,140.63
2019-03-06T11:46:46.954Z,140.63
2019-03-06T11:47:46.904Z,135.00
2019-03-06T11:48:46.863Z,135.00
2019-03-06T11:49:46.823Z,129.38
2019-03-06T11:50:46.775Z,129.38
2019-03-06T11:51:46.735Z,129.38
2019-03-06T11:52:46.690Z,129.38
2019-03-06T11:53:46.641Z,129.38
2019-03-06T11:54:48.102Z,129.38
2019-03-06T11:55:46.556Z,123.75
2019-03-06T11:56:46.512Z,123.75
2019-03-06T11:57:46.467Z,118.13
2019-03-06T11:58:46.425Z,118.13
2019-03-06T11:59:46.376Z,112.50
2019-03-06T12:00:46.333Z,118.13
2019-03-06T12:01:48.215Z,123.75
2019-03-06T12:02:46.244Z,129.38
2019-03-06T12:03:46.198Z,123.75
2019-03-06T12:04:46.157Z,118.13
2019-03-06T12:05:46.114Z,106.88
2019-03-06T12:06:46.070Z,106.88
2019-03-06T12:07:46.023Z,106.88
2019-03-06T12:08:46.186Z,106.88
2019-03-06T12:09:45.936Z,106.88
2019-03-06T12:10:45.896Z,106.88
2019-03-06T12:11:45.846Z,106.88
2019-03-06T12:12:45.801Z,106.88
2019-03-06T12:13:45.770Z,106.88
2019-03-06T12:14:45.721Z,106.88
2019-03-06T12:15:45.675Z,101.25
2019-03-06T12:16:45.633Z,101.25
2019-03-06T12:17:45.588Z,95.63
2019-03-06T12:18:45.543Z,95.63
2019-03-06T12:19:45.497Z,90.00
2019-03-06T12:20:45.452Z,90.00
2019-03-06T12:21:45.404Z,90.00
2019-03-06T12:22:45.358Z,90.00
2019-03-06T12:23:45.349Z,95.63
2019-03-06T12:24:45.279Z,101.25
2019-03-06T12:25:45.239Z,101.25
2019-03-06T12:26:45.182Z,101.25
2019-03-06T12:27:45.142Z,101.25
2019-03-06T12:28:45.100Z,106.88
2019-03-06T12:29:45.051Z,106.88
2019-03-06T12:30:45.258Z,106.88
2019-03-06T12:31:44.961Z,106.88
2019-03-06T12:32:45.582Z,101.25
2019-03-06T12:33:44.875Z,95.63
2019-03-06T12:34:44.827Z,90.00
2019-03-06T12:35:44.788Z,90.00
2019-03-06T12:36:44.742Z,84.38
2019-03-06T12:37:47.157Z,78.75
2019-03-06T12:38:44.651Z,67.50
2019-03-06T12:39:44.612Z,61.88
2019-03-06T12:40:44.576Z,61.88
2019-03-06T12:41:44.659Z,56.25
2019-03-06T12:42:44.487Z,56.25
2019-03-06T12:43:44.786Z,56.25
2019-03-06T12:44:44.396Z,56.25
2019-03-06T12:45:44.340Z,61.88
2019-03-06T12:46:44.324Z,61.88
2019-03-06T12:47:44.250Z,56.25
2019-03-06T12:48:44.206Z,56.25
2019-03-06T12:49:44.175Z,56.25
2019-03-06T12:50:53.044Z,56.25
2019-03-06T12:51:44.076Z,56.25
2019-03-06T12:52:44.029Z,56.25
2019-03-06T12:53:43.984Z,50.63
2019-03-06T12:54:43.940Z,45.00
2019-03-06T12:55:43.894Z,45.00
2019-03-06T12:56:43.850Z,39.38
2019-03-06T12:57:43.807Z,39.38
2019-03-06T12:58:43.766Z,39.38
2019-03-06T12:59:43.715Z,39.38
2019-03-06T13:00:43.678Z,33.75
2019-03-06T13:01:43.633Z,33.75
2019-03-06T13:02:43.584Z,33.75